createdAt,value
2018-03-21T00:02:04.733Z,72.90
2018-03-21T00:04:33.866Z,73.32
2018-03-21T00:07:03.011Z,73.29
2018-03-21T00:09:32.224Z,72.73
2018-03-21T00:12:01.639Z,73.05
2018-03-21T00:14:31.509Z,73.16
2018-03-21T00:17:00.694Z,72.70
2018-03-21T00:19:29.845Z,72.11
2018-03-21T00:21:58.971Z,72.11
2018-03-21T00:24:28.224Z,71.76
2018-03-21T00:26:57.405Z,71.40
2018-03-21T00:29:26.608Z,72.15
2018-03-21T00:31:55.877Z,72.44
2018-03-21T00:34:25.106Z,73.14
2018-03-21T00:36:54.300Z,74.79
2018-03-21T00:39:23.664Z,75.22
2018-03-21T00:41:52.869Z,75.08
2018-03-21T00:44:22.064Z,75.18
2018-03-21T00:46:51.418Z,74.92
2018-03-21T00:49:20.623Z,74.75
2018-03-21T00:51:49.821Z,74.87
2018-03-21T00:54:19.087Z,74.92
2018-03-21T00:56:48.305Z,74.95
2018-03-21T00:59:24.022Z,74.82
2018-03-21T01:01:53.227Z,75.04
2018-03-21T01:04:22.508Z,75.46
2018-03-21T01:06:51.717Z,76.31
2018-03-21T01:09:21.002Z,76.58
2018-03-21T01:11:50.261Z,76.90
2018-03-21T01:14:19.464Z,76.81
2018-03-21T01:16:48.683Z,75.70
2018-03-21T01:19:17.947Z,75.58
2018-03-21T01:21:47.491Z,75.37
2018-03-21T01:24:16.775Z,74.60
2018-03-21T01:26:46.080Z,74.03
2018-03-21T01:29:15.274Z,73.80
2018-03-21T01:31:44.547Z,73.00
2018-03-21T01:34:13.897Z,73.87
2018-03-21T01:36:42.988Z,74.80
2018-03-21T01:39:12.180Z,74.78
2018-03-21T01:41:41.465Z,74.23
2018-03-21T01:44:10.662Z,74.33
2018-03-21T01:46:39.900Z,74.43
2018-03-21T01:49:09.363Z,75.66
2018-03-21T01:51:38.528Z,76.80
2018-03-21T01:54:07.736Z,76.71
2018-03-21T01:56:37.011Z,77.17
2018-03-21T01:59:06.236Z,77.38
2018-03-21T02:01:36.054Z,77.16
2018-03-21T02:04:05.492Z,75.94
2018-03-21T02:06:34.690Z,76.05
2018-03-21T02:09:03.496Z,75.42
2018-03-21T02:11:32.772Z,75.20
2018-03-21T02:14:01.981Z,74.73
2018-03-21T02:16:31.182Z,74.85
2018-03-21T02:19:00.660Z,75.23
2018-03-21T02:21:29.863Z,74.95
2018-03-21T02:23:59.045Z,75.00
2018-03-21T02:26:28.314Z,74.80
2018-03-21T02:28:57.499Z,74.29
2018-03-21T02:31:26.274Z,73.70
2018-03-21T02:33:55.570Z,73.70
2018-03-21T02:36:24.782Z,73.71
2018-03-21T02:38:54.542Z,73.49
2018-03-21T02:41:23.851Z,73.58
2018-03-21T02:43:53.067Z,73.57
2018-03-21T02:46:22.562Z,72.78
2018-03-21T02:48:51.820Z,72.44
2018-03-21T02:51:20.984Z,72.09
2018-03-21T02:53:50.187Z,72.27
2018-03-21T02:56:20.230Z,72.00
2018-03-21T02:58:49.410Z,72.05
2018-03-21T03:01:18.614Z,72.05
2018-03-21T03:03:48.725Z,71.47
2018-03-21T03:06:17.828Z,71.55
2018-03-21T03:08:47.023Z,71.25
2018-03-21T03:11:16.280Z,70.92
2018-03-21T03:13:45.506Z,70.41
2018-03-21T03:16:14.816Z,70.47
2018-03-21T03:18:44.052Z,70.19
2018-03-21T03:21:13.264Z,70.06
2018-03-21T03:23:42.472Z,69.69
2018-03-21T03:26:11.785Z,69.18
2018-03-21T03:28:40.974Z,69.12
2018-03-21T03:31:10.174Z,69.03
2018-03-21T03:33:39.452Z,69.07
2018-03-21T03:36:08.674Z,68.93
2018-03-21T03:38:37.878Z,68.52
2018-03-21T03:41:07.154Z,68.50
2018-03-21T03:43:36.356Z,68.35
2018-03-21T03:46:05.565Z,68.05
2018-03-21T03:48:35.059Z,67.98
2018-03-21T03:51:04.263Z,67.93
2018-03-21T03:53:33.473Z,67.78
2018-03-21T03:56:02.761Z,67.89
2018-03-21T03:58:31.955Z,67.65
2018-03-21T04:01:01.160Z,67.44
2018-03-21T04:03:31.006Z,66.90
2018-03-21T04:06:00.407Z,66.87
2018-03-21T04:08:29.601Z,66.64
2018-03-21T04:10:59.825Z,66.74
2018-03-21T04:13:29.029Z,66.60
2018-03-21T04:15:58.220Z,66.73
2018-03-21T04:18:28.186Z,66.36
2018-03-21T04:20:57.287Z,66.60
2018-03-21T04:23:26.490Z,66.70
2018-03-21T04:25:55.761Z,66.73
2018-03-21T04:28:24.960Z,66.97
2018-03-21T04:30:54.144Z,66.84
2018-03-21T04:33:23.448Z,66.76
2018-03-21T04:35:52.649Z,66.21
2018-03-21T04:38:22.797Z,66.26
2018-03-21T04:40:52.815Z,66.13
2018-03-21T04:43:21.999Z,65.72
2018-03-21T04:45:51.089Z,65.85
2018-03-21T04:48:21.050Z,65.64
2018-03-21T04:50:51.255Z,65.71
2018-03-21T04:53:20.585Z,65.79
2018-03-21T04:55:49.756Z,65.62
2018-03-21T04:58:18.585Z,65.53
2018-03-21T05:00:47.851Z,64.91
2018-03-21T05:03:17.290Z,65.08
2018-03-21T05:05:46.480Z,65.01
2018-03-21T05:08:16.487Z,64.59
2018-03-21T05:10:45.727Z,64.50
2018-03-21T05:13:14.924Z,64.65
2018-03-21T05:15:44.234Z,64.36
2018-03-21T05:18:13.415Z,64.23
2018-03-21T05:20:42.624Z,64.07
2018-03-21T05:23:11.946Z,64.05
2018-03-21T05:25:42.924Z,64.15
2018-03-21T05:28:12.628Z,64.22
2018-03-21T05:30:41.854Z,64.30
2018-03-21T05:33:11.031Z,64.37
2018-03-21T05:35:40.284Z,64.17
2018-03-21T05:38:09.481Z,64.21
2018-03-21T05:40:38.815Z,64.95
2018-03-21T05:43:08.582Z,65.27
2018-03-21T05:45:37.776Z,65.74
2018-03-21T05:48:07.816Z,67.08
2018-03-21T05:50:37.129Z,68.00
2018-03-21T05:53:06.320Z,68.62
2018-03-21T05:55:35.647Z,68.46
2018-03-21T05:58:04.934Z,69.16
2018-03-21T06:00:34.144Z,69.57
2018-03-21T06:03:03.374Z,70.47
2018-03-21T06:05:32.673Z,70.86
2018-03-21T06:08:01.930Z,70.86
2018-03-21T06:10:31.133Z,70.90
2018-03-21T06:13:00.392Z,70.93
2018-03-21T06:15:29.578Z,70.89
2018-03-21T06:17:58.800Z,70.63
2018-03-21T06:20:28.087Z,70.53
2018-03-21T06:22:57.303Z,70.70
2018-03-21T06:25:26.541Z,70.30
2018-03-21T06:27:55.791Z,70.38
2018-03-21T06:30:25.013Z,69.56
2018-03-21T06:32:54.234Z,69.72
2018-03-21T06:35:23.526Z,69.87
2018-03-21T06:37:54.976Z,69.95
2018-03-21T06:40:24.376Z,70.13
2018-03-21T06:42:53.660Z,69.48
2018-03-21T06:45:22.865Z,69.43
2018-03-21T06:47:52.121Z,68.95
2018-03-21T06:50:21.306Z,69.10
2018-03-21T06:52:50.498Z,68.64
2018-03-21T06:55:19.816Z,67.93
2018-03-21T06:57:49.000Z,67.10
2018-03-21T07:00:18.231Z,66.86
2018-03-21T07:02:48.433Z,66.57
2018-03-21T07:05:18.450Z,65.86
2018-03-21T07:07:47.642Z,65.96
2018-03-21T07:10:16.918Z,65.53
2018-03-21T07:12:46.110Z,65.19
2018-03-21T07:15:26.324Z,65.07
2018-03-21T07:17:55.523Z,64.54
2018-03-21T07:20:24.731Z,64.35
2018-03-21T07:22:54.004Z,63.68
2018-03-21T07:25:23.224Z,63.29
2018-03-21T07:27:52.421Z,63.31
2018-03-21T07:30:22.371Z,63.22
2018-03-21T07:32:51.591Z,62.96
2018-03-21T07:35:20.788Z,62.95
2018-03-21T07:37:50.740Z,62.57
2018-03-21T07:40:20.358Z,62.69
2018-03-21T07:42:49.623Z,61.64
2018-03-21T07:45:18.939Z,60.45
2018-03-21T07:47:48.148Z,60.67
2018-03-21T07:50:17.438Z,61.01
2018-03-21T07:52:46.635Z,61.24
2018-03-21T07:55:15.837Z,61.55
2018-03-21T07:57:45.174Z,61.20
2018-03-21T08:00:14.386Z,60.86
2018-03-21T08:02:43.598Z,58.96
2018-03-21T08:05:12.865Z,58.77
2018-03-21T08:07:42.069Z,58.54
2018-03-21T08:10:11.280Z,56.83
2018-03-21T08:12:40.530Z,56.30
2018-03-21T08:15:09.736Z,56.07
2018-03-21T08:17:38.952Z,55.33
2018-03-21T08:20:08.248Z,55.23
2018-03-21T08:22:37.479Z,55.37
2018-03-21T08:25:06.694Z,54.26
2018-03-21T08:27:36.296Z,55.05
2018-03-21T08:30:05.676Z,54.71
2018-03-21T08:32:34.925Z,53.15
2018-03-21T08:35:04.218Z,51.93
2018-03-21T08:37:33.424Z,50.97
2018-03-21T08:40:02.637Z,51.14
2018-03-21T08:42:31.887Z,50.22
2018-03-21T08:45:01.103Z,49.65
2018-03-21T08:47:30.398Z,48.44
2018-03-21T08:49:59.660Z,46.85
2018-03-21T08:52:28.840Z,47.45
2018-03-21T08:54:58.071Z,45.60
2018-03-21T08:57:27.500Z,46.92
2018-03-21T08:59:56.724Z,45.46
2018-03-21T09:02:25.958Z,44.59
2018-03-21T09:04:55.297Z,46.36
2018-03-21T09:07:25.249Z,45.55
2018-03-21T09:09:54.618Z,46.54
2018-03-21T09:12:23.898Z,45.69
2018-03-21T09:14:53.091Z,45.42
2018-03-21T09:17:22.307Z,47.10
2018-03-21T09:19:51.628Z,43.91
2018-03-21T09:22:20.840Z,45.65
2018-03-21T09:24:50.029Z,44.86
2018-03-21T09:27:19.291Z,44.86
2018-03-21T09:29:48.510Z,44.85
2018-03-21T09:32:17.772Z,43.41
2018-03-21T09:34:47.029Z,43.82
2018-03-21T09:37:16.240Z,44.49
2018-03-21T09:39:45.449Z,43.93
2018-03-21T09:42:14.767Z,42.81
2018-03-21T09:44:43.959Z,43.70
2018-03-21T09:47:13.183Z,41.93
2018-03-21T09:49:42.491Z,42.92
2018-03-21T09:52:11.873Z,43.77
2018-03-21T09:54:44.682Z,44.61
2018-03-21T09:57:13.978Z,44.02
2018-03-21T09:59:43.066Z,41.07
2018-03-21T10:02:12.339Z,42.46
2018-03-21T10:04:41.567Z,42.98
2018-03-21T10:07:10.761Z,42.78
2018-03-21T10:09:40.049Z,42.95
2018-03-21T10:12:09.242Z,42.79
2018-03-21T10:14:38.440Z,41.15
2018-03-21T10:17:07.687Z,40.69
2018-03-21T10:19:36.891Z,41.06
2018-03-21T10:22:06.097Z,43.24
2018-03-21T10:24:35.359Z,42.70
2018-03-21T10:27:04.552Z,40.40
2018-03-21T10:29:33.747Z,39.40
2018-03-21T10:32:02.998Z,39.21
2018-03-21T10:34:32.274Z,39.15
2018-03-21T10:37:01.651Z,38.90
2018-03-21T10:39:30.920Z,38.45
2018-03-21T10:42:00.092Z,37.41
2018-03-21T10:44:29.186Z,37.77
2018-03-21T10:46:58.443Z,38.14
2018-03-21T10:49:28.489Z,37.50
2018-03-21T10:51:57.792Z,37.15
2018-03-21T10:54:27.036Z,34.37
2018-03-21T10:56:56.221Z,36.46
2018-03-21T10:59:25.405Z,34.62
2018-03-21T11:02:00.008Z,33.83
2018-03-21T11:04:29.230Z,31.89
2018-03-21T11:06:58.406Z,33.09
2018-03-21T11:09:27.734Z,31.29
2018-03-21T11:11:57.005Z,32.46
2018-03-21T11:14:26.369Z,32.55
2018-03-21T11:16:55.652Z,28.58
2018-03-21T11:19:24.842Z,29.21
2018-03-21T11:21:54.097Z,28.50
2018-03-21T11:24:23.347Z,29.34
2018-03-21T11:26:52.579Z,28.75
2018-03-21T11:29:21.807Z,29.05
2018-03-21T11:31:51.070Z,28.12
2018-03-21T11:34:20.303Z,29.64
2018-03-21T11:36:49.512Z,27.01
2018-03-21T11:39:18.788Z,28.41
2018-03-21T11:41:47.970Z,28.74
2018-03-21T11:44:17.180Z,29.63
2018-03-21T11:46:46.468Z,28.84
2018-03-21T11:49:15.983Z,28.68
2018-03-21T11:51:45.180Z,27.57
2018-03-21T11:54:14.525Z,29.30
2018-03-21T11:56:43.729Z,28.70
2018-03-21T11:59:12.918Z,29.22
2018-03-21T12:01:42.160Z,27.88
2018-03-21T12:04:11.394Z,28.52
2018-03-21T12:06:40.580Z,29.07
2018-03-21T12:09:09.583Z,28.85
2018-03-21T12:11:39.114Z,30.49
2018-03-21T12:14:08.315Z,28.68
2018-03-21T12:16:43.085Z,30.09
2018-03-21T12:19:12.275Z,29.60
2018-03-21T12:21:41.536Z,30.57
2018-03-21T12:24:10.730Z,30.09
2018-03-21T12:26:39.920Z,30.17
2018-03-21T12:29:09.279Z,30.24
2018-03-21T12:31:38.466Z,31.14
2018-03-21T12:34:07.688Z,31.35
2018-03-21T12:36:36.927Z,30.49
2018-03-21T12:39:05.580Z,30.18
2018-03-21T12:41:34.770Z,30.88
2018-03-21T12:44:04.030Z,30.66
2018-03-21T12:46:32.951Z,30.96
2018-03-21T12:49:02.204Z,30.71
2018-03-21T12:51:31.457Z,30.90
2018-03-21T12:54:00.661Z,31.37
2018-03-21T12:56:29.963Z,30.74
2018-03-21T12:58:59.231Z,31.45
2018-03-21T13:01:29.106Z,31.01
2018-03-21T13:03:58.219Z,30.29
2018-03-21T13:06:27.465Z,30.88
2018-03-21T13:08:57.286Z,29.63
2018-03-21T13:11:26.697Z,30.24
2018-03-21T13:13:55.948Z,31.33
2018-03-21T13:16:25.158Z,33.03
2018-03-21T13:18:54.739Z,34.06
2018-03-21T13:21:24.083Z,33.53
2018-03-21T13:23:53.307Z,31.83
2018-03-21T13:26:22.512Z,32.11
2018-03-21T13:28:51.792Z,32.57
2018-03-21T13:31:20.978Z,30.08
2018-03-21T13:33:50.213Z,30.34
2018-03-21T13:36:19.482Z,31.92
2018-03-21T13:38:48.710Z,33.40
2018-03-21T13:41:18.031Z,33.43
2018-03-21T13:43:47.914Z,32.23
2018-03-21T13:46:17.102Z,30.97
2018-03-21T13:48:47.811Z,31.58
2018-03-21T13:51:17.265Z,32.45
2018-03-21T13:53:46.443Z,31.59
2018-03-21T13:56:15.626Z,31.89
2018-03-21T13:58:44.988Z,33.09
2018-03-21T14:01:14.210Z,32.98
2018-03-21T14:03:43.427Z,32.00
2018-03-21T14:06:13.073Z,32.97
2018-03-21T14:08:42.306Z,31.95
2018-03-21T14:11:11.520Z,31.50
2018-03-21T14:13:40.767Z,32.78
2018-03-21T14:16:09.968Z,33.56
2018-03-21T14:18:39.165Z,34.60
2018-03-21T14:21:08.434Z,34.54
2018-03-21T14:23:37.652Z,33.34
2018-03-21T14:26:06.872Z,31.81
2018-03-21T14:28:36.118Z,31.68
2018-03-21T14:31:05.352Z,31.21
2018-03-21T14:33:34.538Z,30.76
2018-03-21T14:36:03.890Z,31.33
2018-03-21T14:38:33.089Z,31.81
2018-03-21T14:41:02.264Z,33.17
2018-03-21T14:43:32.367Z,33.65
2018-03-21T14:46:01.552Z,34.25
2018-03-21T14:48:30.761Z,34.60
2018-03-21T14:51:00.028Z,33.27
2018-03-21T14:53:29.240Z,33.23
2018-03-21T14:55:58.430Z,33.72
2018-03-21T14:58:28.061Z,34.37
2018-03-21T15:00:57.344Z,34.13
2018-03-21T15:03:26.549Z,33.93
2018-03-21T15:05:55.805Z,34.60
2018-03-21T15:08:24.977Z,34.66
2018-03-21T15:10:54.401Z,34.41
2018-03-21T15:13:23.685Z,34.48
2018-03-21T15:15:53.477Z,34.23
2018-03-21T15:18:22.696Z,34.67
2018-03-21T15:20:52.016Z,36.17
2018-03-21T15:23:21.239Z,35.99
2018-03-21T15:25:50.444Z,35.91
2018-03-21T15:28:19.713Z,35.13
2018-03-21T15:30:48.889Z,34.31
2018-03-21T15:33:18.081Z,34.02
2018-03-21T15:35:47.442Z,34.10
2018-03-21T15:38:16.643Z,33.84
2018-03-21T15:40:45.866Z,33.93
2018-03-21T15:43:15.128Z,33.62
2018-03-21T15:45:44.320Z,34.11
2018-03-21T15:48:13.522Z,34.77
2018-03-21T15:50:42.800Z,33.95
2018-03-21T15:53:12.023Z,34.71
2018-03-21T15:55:41.240Z,34.27
2018-03-21T15:58:10.492Z,33.80
2018-03-21T16:00:39.705Z,33.76
2018-03-21T16:03:09.015Z,34.14
2018-03-21T16:05:38.279Z,34.20
2018-03-21T16:08:07.528Z,34.09
2018-03-21T16:10:36.730Z,33.68
2018-03-21T16:13:06.020Z,33.08
2018-03-21T16:15:35.275Z,33.59
2018-03-21T16:18:04.538Z,33.72
2018-03-21T16:20:33.867Z,33.54
2018-03-21T16:23:03.077Z,34.47
2018-03-21T16:25:32.313Z,34.16
2018-03-21T16:28:01.589Z,34.59
2018-03-21T16:30:30.820Z,35.27
2018-03-21T16:33:00.057Z,35.05
2018-03-21T16:35:29.372Z,35.36
2018-03-21T16:37:58.584Z,35.35
2018-03-21T16:40:27.814Z,35.65
2018-03-21T16:42:56.967Z,35.46
2018-03-21T16:45:26.188Z,36.21
2018-03-21T16:47:55.405Z,36.49
2018-03-21T16:50:24.674Z,36.71
2018-03-21T16:52:53.878Z,36.73
2018-03-21T16:55:23.119Z,36.94
2018-03-21T16:57:52.388Z,37.10
2018-03-21T17:00:21.639Z,37.32
2018-03-21T17:02:50.919Z,37.43
2018-03-21T17:05:20.334Z,37.70
2018-03-21T17:07:49.604Z,44.38
2018-03-21T17:10:18.927Z,43.56
2018-03-21T17:12:48.369Z,41.55
2018-03-21T17:15:17.613Z,37.23
2018-03-21T17:17:46.983Z,35.86
2018-03-21T17:20:16.080Z,37.20
2018-03-21T17:22:45.246Z,37.94
2018-03-21T17:25:14.232Z,37.99
2018-03-21T17:27:43.224Z,38.59
2018-03-21T17:30:12.175Z,38.89
2018-03-21T17:32:41.152Z,39.06
2018-03-21T17:35:10.220Z,39.22
2018-03-21T17:37:39.165Z,39.71
2018-03-21T17:40:08.321Z,40.04
2018-03-21T17:42:37.292Z,47.95
2018-03-21T17:45:06.351Z,46.31
2018-03-21T17:47:35.460Z,44.63
2018-03-21T17:50:04.476Z,39.69
2018-03-21T17:52:33.372Z,38.46
2018-03-21T17:55:02.379Z,38.80
2018-03-21T17:57:31.324Z,39.38
2018-03-21T18:00:00.278Z,40.25
2018-03-21T18:02:29.337Z,40.78
2018-03-21T18:04:58.337Z,41.25
2018-03-21T18:07:27.310Z,41.83
2018-03-21T18:09:56.334Z,42.27
2018-03-21T18:12:25.384Z,42.67
2018-03-21T18:14:54.359Z,42.83
2018-03-21T18:17:23.374Z,42.83
2018-03-21T18:19:52.336Z,42.84
2018-03-21T18:22:21.666Z,43.07
2018-03-21T18:24:51.104Z,43.39
2018-03-21T18:27:20.189Z,43.71
2018-03-21T18:29:49.264Z,44.26
2018-03-21T18:32:18.546Z,44.38
2018-03-21T18:34:47.640Z,45.01
2018-03-21T18:37:16.554Z,45.25
2018-03-21T18:39:45.625Z,45.29
2018-03-21T18:42:14.911Z,45.83
2018-03-21T18:44:43.908Z,46.18
2018-03-21T18:47:13.534Z,46.56
2018-03-21T18:49:42.779Z,50.02
2018-03-21T18:52:11.996Z,49.25
2018-03-21T18:54:41.312Z,45.89
2018-03-21T18:57:10.648Z,44.42
2018-03-21T18:59:39.948Z,44.97
2018-03-21T19:02:09.288Z,45.63
2018-03-21T19:04:38.632Z,46.49
2018-03-21T19:07:07.913Z,46.68
2018-03-21T19:09:37.664Z,47.23
2018-03-21T19:12:08.387Z,47.84
2018-03-21T19:14:39.352Z,48.42
2018-03-21T19:17:10.340Z,48.86
2018-03-21T19:19:42.472Z,49.25
2018-03-21T19:22:12.940Z,49.43
2018-03-21T19:24:43.468Z,50.40
2018-03-21T19:27:15.847Z,50.21
2018-03-21T19:29:45.748Z,50.55
2018-03-21T19:32:16.442Z,51.27
2018-03-21T19:34:47.508Z,51.16
2018-03-21T19:37:18.682Z,51.24
2018-03-21T19:39:49.334Z,51.84
2018-03-21T19:42:20.372Z,52.28
2018-03-21T19:44:51.375Z,53.01
2018-03-21T19:47:22.673Z,53.31
2018-03-21T19:49:53.372Z,52.82
2018-03-21T19:52:24.267Z,53.54
2018-03-21T19:54:55.064Z,53.67
2018-03-21T19:57:25.800Z,53.25
2018-03-21T19:59:56.467Z,53.92
2018-03-21T20:02:27.383Z,53.74
2018-03-21T20:04:58.431Z,54.01
2018-03-21T20:07:29.352Z,54.25
2018-03-21T20:10:00.007Z,54.10
2018-03-21T20:12:30.609Z,54.50
2018-03-21T20:15:01.462Z,54.83
2018-03-21T20:17:31.921Z,54.14
2018-03-21T20:20:02.527Z,54.89
2018-03-21T20:22:33.250Z,54.52
2018-03-21T20:25:04.355Z,55.30
2018-03-21T20:27:35.360Z,54.78
2018-03-21T20:30:06.513Z,55.43
2018-03-21T20:32:36.647Z,54.68
2018-03-21T20:35:07.480Z,55.07
2018-03-21T20:37:38.382Z,54.93
2018-03-21T20:40:09.450Z,55.17
2018-03-21T20:42:40.312Z,55.82
2018-03-21T20:45:11.513Z,55.43
2018-03-21T20:47:42.522Z,55.64
2018-03-21T20:50:14.081Z,56.13
2018-03-21T20:52:44.896Z,56.58
2018-03-21T20:55:15.455Z,56.63
2018-03-21T20:57:46.246Z,57.41
2018-03-21T21:00:16.940Z,56.48
2018-03-21T21:02:47.622Z,56.51
2018-03-21T21:05:18.441Z,57.27
2018-03-21T21:07:49.368Z,57.04
2018-03-21T21:10:21.010Z,57.31
2018-03-21T21:12:51.861Z,57.53
2018-03-21T21:15:22.783Z,57.65
2018-03-21T21:17:53.338Z,58.42
2018-03-21T21:20:24.884Z,57.70
2018-03-21T21:22:55.381Z,57.87
2018-03-21T21:25:26.252Z,57.56
2018-03-21T21:27:56.866Z,58.45
2018-03-21T21:30:28.775Z,58.09
2018-03-21T21:32:58.893Z,58.05
2018-03-21T21:35:29.657Z,57.76
2018-03-21T21:38:00.413Z,58.10
2018-03-21T21:40:30.949Z,57.82
2018-03-21T21:43:01.368Z,57.83
2018-03-21T21:45:32.432Z,58.83
2018-03-21T21:48:02.813Z,58.29
2018-03-21T21:50:33.690Z,58.73
2018-03-21T21:53:04.345Z,58.52
2018-03-21T21:55:35.328Z,58.98
2018-03-21T21:58:06.371Z,58.67
2018-03-21T22:00:37.236Z,59.01
2018-03-21T22:03:08.176Z,58.48
2018-03-21T22:05:39.201Z,58.50
2018-03-21T22:08:10.154Z,58.93
2018-03-21T22:10:41.223Z,59.41
2018-03-21T22:13:12.197Z,59.86
2018-03-21T22:15:43.211Z,58.98
2018-03-21T22:18:14.155Z,59.83
2018-03-21T22:20:45.156Z,58.93
2018-03-21T22:23:16.185Z,59.48
2018-03-21T22:25:47.195Z,60.32
2018-03-21T22:28:18.111Z,59.85
2018-03-21T22:30:49.144Z,60.25
2018-03-21T22:33:20.305Z,59.87
2018-03-21T22:35:51.372Z,60.16
2018-03-21T22:38:22.744Z,60.56
2018-03-21T22:40:52.477Z,59.54
2018-03-21T22:43:23.288Z,60.51
2018-03-21T22:45:55.527Z,60.98
2018-03-21T22:48:25.591Z,60.29
2018-03-21T22:50:56.351Z,61.37
2018-03-21T22:53:27.324Z,61.25
2018-03-21T22:55:58.343Z,60.98
2018-03-21T22:58:29.306Z,61.14
2018-03-21T23:01:00.307Z,61.60
2018-03-21T23:03:31.317Z,61.37
2018-03-21T23:06:02.358Z,61.49
2018-03-21T23:08:32.913Z,60.74
2018-03-21T23:11:03.883Z,61.28
2018-03-21T23:13:34.462Z,61.21
2018-03-21T23:16:05.403Z,60.84
2018-03-21T23:18:36.251Z,61.37
2018-03-21T23:21:06.900Z,62.58
2018-03-21T23:23:38.518Z,61.42
2018-03-21T23:26:09.284Z,61.26
2018-03-21T23:28:40.244Z,61.87
2018-03-21T23:31:11.780Z,62.52
2018-03-21T23:33:42.300Z,62.51
2018-03-21T23:36:13.343Z,62.21
2018-03-21T23:38:44.216Z,62.63
2018-03-21T23:41:15.223Z,62.26
2018-03-21T23:43:46.175Z,61.89
2018-03-21T23:46:17.310Z,61.11
2018-03-21T23:48:48.207Z,61.63
2018-03-21T23:51:19.242Z,61.37
2018-03-21T23:53:50.188Z,61.21
2018-03-21T23:56:21.603Z,61.03
2018-03-21T23:58:51.889Z,61.08
